Sint-Laureins, Belgium
Current Conditions -  °F | °C
As of 12:55 AM on Wednesday 26 Nov 2014 (Local Time) from EHFS Reporting Station
Clear Clear  
Wind Chill: 37°   Ceiling: Unl
Heat Index: 45°   Visibility: 6mi
Dew Point: 39°   Wind: 17mph
Humidity: 81%   Direction: 90°E
Pressure: 30.03"   Gusts: NA
Location:  51.24°N, 3.52°E
Report Text: EHFS 252355Z AUTO 09015KT 9999 NSC 07/04 Q1017
Loading
Personal Weather Stations






























Interactive Weather Map New forecast layout! Learn more

10-Day Weather Forecast

Advertisements
Track Severe Weather on mobile